sensor_id;sensor_type;location;lat;lon;timestamp;P1;durP1;ratioP1;P2;durP2;ratioP2
45642;SDS011;31358;46.008;11.144;2022-08-19T00:01:27;11.75;;;7.18;;
45642;SDS011;31358;46.008;11.144;2022-08-19T00:03:54;12.50;;;6.88;;
45642;SDS011;31358;46.008;11.144;2022-08-19T00:06:21;10.45;;;5.47;;
45642;SDS011;31358;46.008;11.144;2022-08-19T00:08:47;11.90;;;6.05;;
45642;SDS011;31358;46.008;11.144;2022-08-19T00:11:12;13.55;;;6.75;;
45642;SDS011;31358;46.008;11.144;2022-08-19T00:13:38;9.65;;;5.35;;
45642;SDS011;31358;46.008;11.144;2022-08-19T00:16:04;14.70;;;6.50;;
45642;SDS011;31358;46.008;11.144;2022-08-19T00:18:31;13.05;;;6.53;;
45642;SDS011;31358;46.008;11.144;2022-08-19T00:20:58;9.02;;;5.18;;
45642;SDS011;31358;46.008;11.144;2022-08-19T00:23:24;10.13;;;5.18;;
45642;SDS011;31358;46.008;11.144;2022-08-19T00:25:50;9.10;;;5.35;;
45642;SDS011;31358;46.008;11.144;2022-08-19T00:28:17;8.45;;;4.25;;
45642;SDS011;31358;46.008;11.144;2022-08-19T00:30:43;8.07;;;4.00;;
45642;SDS011;31358;46.008;11.144;2022-08-19T00:33:09;10.68;;;5.53;;
45642;SDS011;31358;46.008;11.144;2022-08-19T00:35:35;8.63;;;4.70;;
45642;SDS011;31358;46.008;11.144;2022-08-19T00:38:03;10.77;;;5.07;;
45642;SDS011;31358;46.008;11.144;2022-08-19T00:40:31;11.07;;;5.85;;
45642;SDS011;31358;46.008;11.144;2022-08-19T00:42:57;10.00;;;5.13;;
45642;SDS011;31358;46.008;11.144;2022-08-19T00:45:24;10.27;;;5.30;;
45642;SDS011;31358;46.008;11.144;2022-08-19T00:47:51;7.13;;;4.43;;
45642;SDS011;31358;46.008;11.144;2022-08-19T00:50:18;9.38;;;4.32;;
45642;SDS011;31358;46.008;11.144;2022-08-19T00:52:46;10.88;;;4.60;;
45642;SDS011;31358;46.008;11.144;2022-08-19T00:55:23;9.80;;;4.43;;
45642;SDS011;31358;46.008;11.144;2022-08-19T00:57:54;8.13;;;3.30;;
45642;SDS011;31358;46.008;11.144;2022-08-19T01:00:23;6.22;;;3.65;;
45642;SDS011;31358;46.008;11.144;2022-08-19T01:02:51;10.05;;;4.65;;
45642;SDS011;31358;46.008;11.144;2022-08-19T01:05:20;10.77;;;3.80;;
45642;SDS011;31358;46.008;11.144;2022-08-19T01:07:49;8.73;;;4.05;;
45642;SDS011;31358;46.008;11.144;2022-08-19T01:10:16;12.43;;;6.72;;
45642;SDS011;31358;46.008;11.144;2022-08-19T01:12:46;11.40;;;6.80;;
45642;SDS011;31358;46.008;11.144;2022-08-19T01:15:14;11.18;;;7.22;;
45642;SDS011;31358;46.008;11.144;2022-08-19T01:17:43;12.27;;;6.90;;
45642;SDS011;31358;46.008;11.144;2022-08-19T01:20:16;10.27;;;7.50;;
45642;SDS011;31358;46.008;11.144;2022-08-19T01:25:18;14.45;;;8.10;;
45642;SDS011;31358;46.008;11.144;2022-08-19T01:27:48;12.30;;;7.20;;
45642;SDS011;31358;46.008;11.144;2022-08-19T01:30:16;9.75;;;6.97;;
45642;SDS011;31358;46.008;11.144;2022-08-19T01:32:48;11.45;;;7.40;;
45642;SDS011;31358;46.008;11.144;2022-08-19T01:35:15;11.70;;;6.93;;
45642;SDS011;31358;46.008;11.144;2022-08-19T01:37:45;11.00;;;6.32;;
45642;SDS011;31358;46.008;11.144;2022-08-19T01:40:15;9.07;;;6.65;;
45642;SDS011;31358;46.008;11.144;2022-08-19T01:42:42;10.40;;;7.00;;
45642;SDS011;31358;46.008;11.144;2022-08-19T01:45:08;12.27;;;7.30;;
45642;SDS011;31358;46.008;11.144;2022-08-19T01:47:35;14.48;;;7.70;;
45642;SDS011;31358;46.008;11.144;2022-08-19T01:50:01;9.85;;;7.03;;
45642;SDS011;31358;46.008;11.144;2022-08-19T01:52:28;9.15;;;6.43;;
45642;SDS011;31358;46.008;11.144;2022-08-19T01:54:53;9.07;;;7.13;;
45642;SDS011;31358;46.008;11.144;2022-08-19T01:57:19;11.48;;;6.93;;
45642;SDS011;31358;46.008;11.144;2022-08-19T01:59:45;16.25;;;7.45;;
45642;SDS011;31358;46.008;11.144;2022-08-19T02:02:11;9.27;;;6.13;;
45642;SDS011;31358;46.008;11.144;2022-08-19T02:04:37;14.00;;;6.18;;
45642;SDS011;31358;46.008;11.144;2022-08-19T02:07:03;13.05;;;5.28;;
45642;SDS011;31358;46.008;11.144;2022-08-19T02:09:30;11.88;;;5.65;;
45642;SDS011;31358;46.008;11.144;2022-08-19T02:11:56;7.57;;;4.88;;
45642;SDS011;31358;46.008;11.144;2022-08-19T02:14:22;7.22;;;4.53;;
45642;SDS011;31358;46.008;11.144;2022-08-19T02:16:48;8.98;;;3.75;;
45642;SDS011;31358;46.008;11.144;2022-08-19T02:19:14;5.57;;;3.00;;
45642;SDS011;31358;46.008;11.144;2022-08-19T02:21:39;5.75;;;2.40;;
45642;SDS011;31358;46.008;11.144;2022-08-19T02:24:05;6.45;;;2.92;;
45642;SDS011;31358;46.008;11.144;2022-08-19T02:26:31;6.00;;;2.80;;
45642;SDS011;31358;46.008;11.144;2022-08-19T02:28:57;6.15;;;2.83;;
45642;SDS011;31358;46.008;11.144;2022-08-19T02:31:24;6.93;;;2.40;;
45642;SDS011;31358;46.008;11.144;2022-08-19T02:33:52;5.80;;;2.50;;
45642;SDS011;31358;46.008;11.144;2022-08-19T02:36:18;7.10;;;3.08;;
45642;SDS011;31358;46.008;11.144;2022-08-19T02:38:44;5.38;;;2.90;;
45642;SDS011;31358;46.008;11.144;2022-08-19T02:41:17;6.30;;;3.63;;
45642;SDS011;31358;46.008;11.144;2022-08-19T02:43:45;6.80;;;2.78;;
45642;SDS011;31358;46.008;11.144;2022-08-19T02:46:22;3.20;;;1.83;;
45642;SDS011;31358;46.008;11.144;2022-08-19T02:48:51;4.72;;;2.38;;
45642;SDS011;31358;46.008;11.144;2022-08-19T02:51:20;4.70;;;2.50;;
45642;SDS011;31358;46.008;11.144;2022-08-19T02:53:48;4.63;;;1.98;;
45642;SDS011;31358;46.008;11.144;2022-08-19T02:56:13;5.40;;;2.70;;
45642;SDS011;31358;46.008;11.144;2022-08-19T02:58:40;6.95;;;2.80;;
45642;SDS011;31358;46.008;11.144;2022-08-19T03:01:06;4.60;;;2.20;;
45642;SDS011;31358;46.008;11.144;2022-08-19T03:03:32;5.25;;;2.10;;
45642;SDS011;31358;46.008;11.144;2022-08-19T03:06:04;7.07;;;2.60;;
45642;SDS011;31358;46.008;11.144;2022-08-19T03:08:36;5.57;;;2.13;;
45642;SDS011;31358;46.008;11.144;2022-08-19T03:11:02;8.25;;;2.10;;
45642;SDS011;31358;46.008;11.144;2022-08-19T03:13:28;7.40;;;2.30;;
45642;SDS011;31358;46.008;11.144;2022-08-19T03:15:54;5.65;;;2.22;;
45642;SDS011;31358;46.008;11.144;2022-08-19T03:18:20;9.93;;;2.65;;
45642;SDS011;31358;46.008;11.144;2022-08-19T03:20:50;4.95;;;2.05;;
45642;SDS011;31358;46.008;11.144;2022-08-19T03:23:20;5.35;;;1.90;;
45642;SDS011;31358;46.008;11.144;2022-08-19T03:25:47;3.40;;;1.73;;
45642;SDS011;31358;46.008;11.144;2022-08-19T03:28:14;6.78;;;2.28;;
45642;SDS011;31358;46.008;11.144;2022-08-19T03:30:40;3.83;;;2.03;;
45642;SDS011;31358;46.008;11.144;2022-08-19T03:33:07;4.70;;;2.17;;
45642;SDS011;31358;46.008;11.144;2022-08-19T03:35:34;9.55;;;2.38;;
45642;SDS011;31358;46.008;11.144;2022-08-19T03:38:03;4.75;;;2.25;;
45642;SDS011;31358;46.008;11.144;2022-08-19T03:40:31;6.25;;;2.13;;
45642;SDS011;31358;46.008;11.144;2022-08-19T03:42:59;4.50;;;1.77;;
45642;SDS011;31358;46.008;11.144;2022-08-19T03:45:25;4.53;;;2.10;;
45642;SDS011;31358;46.008;11.144;2022-08-19T03:47:52;5.18;;;2.53;;
45642;SDS011;31358;46.008;11.144;2022-08-19T03:50:18;3.70;;;1.90;;
45642;SDS011;31358;46.008;11.144;2022-08-19T03:52:47;4.90;;;2.00;;
45642;SDS011;31358;46.008;11.144;2022-08-19T03:55:15;5.85;;;2.85;;
45642;SDS011;31358;46.008;11.144;2022-08-19T03:57:41;6.72;;;2.30;;
45642;SDS011;31358;46.008;11.144;2022-08-19T04:00:07;4.38;;;2.03;;
45642;SDS011;31358;46.008;11.144;2022-08-19T04:02:34;5.75;;;2.10;;
45642;SDS011;31358;46.008;11.144;2022-08-19T04:04:59;8.13;;;3.17;;
45642;SDS011;31358;46.008;11.144;2022-08-19T04:07:25;3.90;;;2.10;;
45642;SDS011;31358;46.008;11.144;2022-08-19T04:09:51;7.82;;;3.22;;
45642;SDS011;31358;46.008;11.144;2022-08-19T04:12:17;5.20;;;2.60;;
45642;SDS011;31358;46.008;11.144;2022-08-19T04:14:45;5.38;;;2.83;;
45642;SDS011;31358;46.008;11.144;2022-08-19T04:17:11;4.35;;;2.20;;
45642;SDS011;31358;46.008;11.144;2022-08-19T04:19:37;5.85;;;2.20;;
45642;SDS011;31358;46.008;11.144;2022-08-19T04:22:03;6.57;;;2.22;;
45642;SDS011;31358;46.008;11.144;2022-08-19T04:24:29;5.57;;;2.17;;
45642;SDS011;31358;46.008;11.144;2022-08-19T04:26:56;5.53;;;2.10;;
45642;SDS011;31358;46.008;11.144;2022-08-19T04:29:22;5.55;;;2.08;;
45642;SDS011;31358;46.008;11.144;2022-08-19T04:31:50;5.40;;;2.00;;
45642;SDS011;31358;46.008;11.144;2022-08-19T04:34:18;3.92;;;2.10;;
45642;SDS011;31358;46.008;11.144;2022-08-19T04:36:48;5.60;;;2.15;;
45642;SDS011;31358;46.008;11.144;2022-08-19T04:39:21;6.32;;;2.25;;
45642;SDS011;31358;46.008;11.144;2022-08-19T04:42:10;3.80;;;1.83;;
45642;SDS011;31358;46.008;11.144;2022-08-19T04:47:20;6.35;;;2.30;;
45642;SDS011;31358;46.008;11.144;2022-08-19T04:49:45;6.40;;;2.17;;
45642;SDS011;31358;46.008;11.144;2022-08-19T04:52:11;4.15;;;1.98;;
45642;SDS011;31358;46.008;11.144;2022-08-19T04:54:37;6.82;;;2.20;;
45642;SDS011;31358;46.008;11.144;2022-08-19T04:57:03;3.17;;;1.70;;
45642;SDS011;31358;46.008;11.144;2022-08-19T04:59:31;5.95;;;1.90;;
45642;SDS011;31358;46.008;11.144;2022-08-19T05:01:58;6.20;;;2.58;;
45642;SDS011;31358;46.008;11.144;2022-08-19T05:04:24;7.70;;;1.90;;
45642;SDS011;31358;46.008;11.144;2022-08-19T05:06:49;5.93;;;2.35;;
45642;SDS011;31358;46.008;11.144;2022-08-19T05:09:16;6.45;;;2.22;;
45642;SDS011;31358;46.008;11.144;2022-08-19T05:11:42;3.88;;;1.80;;
45642;SDS011;31358;46.008;11.144;2022-08-19T05:14:09;5.15;;;1.48;;
45642;SDS011;31358;46.008;11.144;2022-08-19T05:16:37;4.43;;;2.20;;
45642;SDS011;31358;46.008;11.144;2022-08-19T05:19:03;3.05;;;1.58;;
45642;SDS011;31358;46.008;11.144;2022-08-19T05:24:32;3.47;;;1.58;;
45642;SDS011;31358;46.008;11.144;2022-08-19T05:27:01;4.00;;;1.85;;
45642;SDS011;31358;46.008;11.144;2022-08-19T05:29:27;3.97;;;1.85;;
45642;SDS011;31358;46.008;11.144;2022-08-19T05:31:54;3.72;;;2.05;;
45642;SDS011;31358;46.008;11.144;2022-08-19T05:34:20;5.35;;;2.15;;
45642;SDS011;31358;46.008;11.144;2022-08-19T05:36:52;6.95;;;2.40;;
45642;SDS011;31358;46.008;11.144;2022-08-19T05:39:21;5.05;;;1.65;;
45642;SDS011;31358;46.008;11.144;2022-08-19T05:41:49;5.20;;;3.42;;
45642;SDS011;31358;46.008;11.144;2022-08-19T05:44:18;6.40;;;2.42;;
45642;SDS011;31358;46.008;11.144;2022-08-19T05:46:45;6.57;;;3.08;;
45642;SDS011;31358;46.008;11.144;2022-08-19T05:49:12;5.50;;;2.15;;
45642;SDS011;31358;46.008;11.144;2022-08-19T05:51:39;8.00;;;2.00;;
45642;SDS011;31358;46.008;11.144;2022-08-19T05:54:05;4.50;;;2.03;;
45642;SDS011;31358;46.008;11.144;2022-08-19T05:56:32;4.43;;;2.03;;
45642;SDS011;31358;46.008;11.144;2022-08-19T05:59:01;6.20;;;2.40;;
45642;SDS011;31358;46.008;11.144;2022-08-19T06:01:29;7.05;;;2.33;;
45642;SDS011;31358;46.008;11.144;2022-08-19T06:03:54;6.00;;;2.78;;
45642;SDS011;31358;46.008;11.144;2022-08-19T06:06:20;6.70;;;2.17;;
45642;SDS011;31358;46.008;11.144;2022-08-19T06:08:46;5.13;;;1.70;;
45642;SDS011;31358;46.008;11.144;2022-08-19T06:11:20;4.30;;;1.90;;
45642;SDS011;31358;46.008;11.144;2022-08-19T06:13:57;6.32;;;2.47;;
45642;SDS011;31358;46.008;11.144;2022-08-19T06:16:26;9.13;;;1.80;;
45642;SDS011;31358;46.008;11.144;2022-08-19T06:18:52;4.20;;;1.90;;
45642;SDS011;31358;46.008;11.144;2022-08-19T06:21:23;6.20;;;1.90;;
45642;SDS011;31358;46.008;11.144;2022-08-19T06:23:52;5.80;;;1.75;;
45642;SDS011;31358;46.008;11.144;2022-08-19T06:26:19;4.65;;;2.35;;
45642;SDS011;31358;46.008;11.144;2022-08-19T06:28:47;6.30;;;3.38;;
45642;SDS011;31358;46.008;11.144;2022-08-19T06:31:14;5.22;;;2.60;;
45642;SDS011;31358;46.008;11.144;2022-08-19T06:33:47;4.28;;;1.70;;
45642;SDS011;31358;46.008;11.144;2022-08-19T06:36:20;6.57;;;1.83;;
45642;SDS011;31358;46.008;11.144;2022-08-19T06:38:50;4.30;;;2.13;;
45642;SDS011;31358;46.008;11.144;2022-08-19T06:41:16;5.75;;;2.45;;
45642;SDS011;31358;46.008;11.144;2022-08-19T06:43:41;4.03;;;2.00;;
45642;SDS011;31358;46.008;11.144;2022-08-19T06:46:11;5.03;;;2.40;;
45642;SDS011;31358;46.008;11.144;2022-08-19T06:48:39;5.95;;;2.00;;
45642;SDS011;31358;46.008;11.144;2022-08-19T06:51:04;7.43;;;2.40;;
45642;SDS011;31358;46.008;11.144;2022-08-19T06:53:31;3.72;;;2.03;;
45642;SDS011;31358;46.008;11.144;2022-08-19T06:55:57;6.90;;;2.28;;
45642;SDS011;31358;46.008;11.144;2022-08-19T06:58:27;5.07;;;2.10;;
45642;SDS011;31358;46.008;11.144;2022-08-19T07:00:57;4.88;;;2.10;;
45642;SDS011;31358;46.008;11.144;2022-08-19T07:03:27;4.35;;;1.92;;
45642;SDS011;31358;46.008;11.144;2022-08-19T07:06:02;4.78;;;2.42;;
45642;SDS011;31358;46.008;11.144;2022-08-19T07:08:33;4.13;;;1.80;;
45642;SDS011;31358;46.008;11.144;2022-08-19T07:10:59;3.67;;;1.80;;
45642;SDS011;31358;46.008;11.144;2022-08-19T07:13:25;3.15;;;1.92;;
45642;SDS011;31358;46.008;11.144;2022-08-19T07:15:51;6.35;;;2.35;;
45642;SDS011;31358;46.008;11.144;2022-08-19T07:18:20;4.15;;;2.10;;
45642;SDS011;31358;46.008;11.144;2022-08-19T07:20:46;6.15;;;2.00;;
45642;SDS011;31358;46.008;11.144;2022-08-19T07:23:13;7.20;;;2.47;;
45642;SDS011;31358;46.008;11.144;2022-08-19T07:25:39;5.43;;;2.17;;
45642;SDS011;31358;46.008;11.144;2022-08-19T07:28:05;4.78;;;2.42;;
45642;SDS011;31358;46.008;11.144;2022-08-19T07:30:32;5.10;;;2.30;;
45642;SDS011;31358;46.008;11.144;2022-08-19T07:33:00;4.65;;;2.17;;
45642;SDS011;31358;46.008;11.144;2022-08-19T07:35:26;4.47;;;2.30;;
45642;SDS011;31358;46.008;11.144;2022-08-19T07:37:53;5.80;;;2.30;;
45642;SDS011;31358;46.008;11.144;2022-08-19T07:40:19;5.03;;;2.53;;
45642;SDS011;31358;46.008;11.144;2022-08-19T07:42:44;3.90;;;2.38;;
45642;SDS011;31358;46.008;11.144;2022-08-19T07:45:10;4.97;;;2.20;;
45642;SDS011;31358;46.008;11.144;2022-08-19T07:47:36;5.22;;;2.67;;
45642;SDS011;31358;46.008;11.144;2022-08-19T07:50:03;6.78;;;2.40;;
45642;SDS011;31358;46.008;11.144;2022-08-19T07:52:30;6.70;;;2.08;;
45642;SDS011;31358;46.008;11.144;2022-08-19T07:54:56;5.95;;;2.65;;
45642;SDS011;31358;46.008;11.144;2022-08-19T07:57:22;5.15;;;2.72;;
45642;SDS011;31358;46.008;11.144;2022-08-19T07:59:47;6.20;;;2.53;;
45642;SDS011;31358;46.008;11.144;2022-08-19T08:02:13;4.65;;;2.72;;
45642;SDS011;31358;46.008;11.144;2022-08-19T08:04:39;5.47;;;2.35;;
45642;SDS011;31358;46.008;11.144;2022-08-19T08:07:23;5.40;;;2.45;;
45642;SDS011;31358;46.008;11.144;2022-08-19T08:10:07;6.25;;;2.35;;
45642;SDS011;31358;46.008;11.144;2022-08-19T08:12:35;4.18;;;2.03;;
45642;SDS011;31358;46.008;11.144;2022-08-19T08:15:07;6.28;;;2.22;;
45642;SDS011;31358;46.008;11.144;2022-08-19T08:17:35;5.07;;;2.08;;
45642;SDS011;31358;46.008;11.144;2022-08-19T08:20:05;6.18;;;2.35;;
45642;SDS011;31358;46.008;11.144;2022-08-19T08:22:32;5.90;;;2.47;;
45642;SDS011;31358;46.008;11.144;2022-08-19T08:25:17;5.38;;;2.35;;
45642;SDS011;31358;46.008;11.144;2022-08-19T08:27:45;4.25;;;2.13;;
45642;SDS011;31358;46.008;11.144;2022-08-19T08:30:14;4.30;;;2.33;;
45642;SDS011;31358;46.008;11.144;2022-08-19T08:32:41;5.15;;;2.53;;
45642;SDS011;31358;46.008;11.144;2022-08-19T08:35:08;5.45;;;2.40;;
45642;SDS011;31358;46.008;11.144;2022-08-19T08:37:36;9.05;;;2.97;;
45642;SDS011;31358;46.008;11.144;2022-08-19T08:40:04;5.75;;;2.85;;
45642;SDS011;31358;46.008;11.144;2022-08-19T08:42:54;6.68;;;2.55;;
45642;SDS011;31358;46.008;11.144;2022-08-19T08:45:31;5.35;;;2.65;;
45642;SDS011;31358;46.008;11.144;2022-08-19T08:48:02;9.18;;;3.25;;
45642;SDS011;31358;46.008;11.144;2022-08-19T08:50:43;5.68;;;2.88;;
45642;SDS011;31358;46.008;11.144;2022-08-19T08:53:13;5.80;;;2.67;;
45642;SDS011;31358;46.008;11.144;2022-08-19T08:55:41;5.20;;;2.50;;
45642;SDS011;31358;46.008;11.144;2022-08-19T08:58:09;4.97;;;2.47;;
45642;SDS011;31358;46.008;11.144;2022-08-19T09:00:43;5.78;;;2.90;;
45642;SDS011;31358;46.008;11.144;2022-08-19T09:03:21;7.10;;;2.97;;
45642;SDS011;31358;46.008;11.144;2022-08-19T09:06:05;7.05;;;2.80;;
45642;SDS011;31358;46.008;11.144;2022-08-19T09:16:59;5.43;;;2.70;;
45642;SDS011;31358;46.008;11.144;2022-08-19T09:19:28;5.85;;;3.00;;
45642;SDS011;31358;46.008;11.144;2022-08-19T09:21:55;8.40;;;2.55;;
45642;SDS011;31358;46.008;11.144;2022-08-19T09:24:20;6.13;;;2.75;;
45642;SDS011;31358;46.008;11.144;2022-08-19T09:26:46;10.02;;;2.90;;
45642;SDS011;31358;46.008;11.144;2022-08-19T09:29:12;5.30;;;2.17;;
45642;SDS011;31358;46.008;11.144;2022-08-19T09:31:38;6.78;;;3.10;;
45642;SDS011;31358;46.008;11.144;2022-08-19T09:34:04;6.13;;;2.33;;
45642;SDS011;31358;46.008;11.144;2022-08-19T09:36:31;5.47;;;2.53;;
45642;SDS011;31358;46.008;11.144;2022-08-19T09:39:01;5.47;;;2.40;;
45642;SDS011;31358;46.008;11.144;2022-08-19T09:41:28;5.05;;;2.58;;
45642;SDS011;31358;46.008;11.144;2022-08-19T09:43:54;9.80;;;2.78;;
45642;SDS011;31358;46.008;11.144;2022-08-19T09:46:22;9.18;;;3.35;;
45642;SDS011;31358;46.008;11.144;2022-08-19T09:48:51;4.47;;;2.28;;
45642;SDS011;31358;46.008;11.144;2022-08-19T09:51:18;4.82;;;2.38;;
45642;SDS011;31358;46.008;11.144;2022-08-19T09:53:46;5.63;;;3.20;;
45642;SDS011;31358;46.008;11.144;2022-08-19T09:56:16;3.70;;;2.05;;
45642;SDS011;31358;46.008;11.144;2022-08-19T09:58:43;4.68;;;2.22;;
45642;SDS011;31358;46.008;11.144;2022-08-19T10:01:14;4.63;;;1.70;;
45642;SDS011;31358;46.008;11.144;2022-08-19T10:03:46;3.28;;;1.85;;
45642;SDS011;31358;46.008;11.144;2022-08-19T10:06:13;5.82;;;2.25;;
45642;SDS011;31358;46.008;11.144;2022-08-19T10:08:39;5.95;;;2.22;;
45642;SDS011;31358;46.008;11.144;2022-08-19T10:11:05;6.30;;;1.55;;
45642;SDS011;31358;46.008;11.144;2022-08-19T10:13:31;4.60;;;2.53;;
45642;SDS011;31358;46.008;11.144;2022-08-19T10:16:07;3.80;;;1.65;;
45642;SDS011;31358;46.008;11.144;2022-08-19T10:18:34;4.35;;;2.03;;
45642;SDS011;31358;46.008;11.144;2022-08-19T10:21:07;7.97;;;2.30;;
45642;SDS011;31358;46.008;11.144;2022-08-19T10:23:33;4.55;;;2.47;;
45642;SDS011;31358;46.008;11.144;2022-08-19T10:26:01;4.43;;;2.33;;
45642;SDS011;31358;46.008;11.144;2022-08-19T10:28:28;6.60;;;2.63;;
45642;SDS011;31358;46.008;11.144;2022-08-19T10:30:54;4.32;;;2.33;;
45642;SDS011;31358;46.008;11.144;2022-08-19T10:33:19;4.32;;;2.50;;
45642;SDS011;31358;46.008;11.144;2022-08-19T10:35:45;7.68;;;2.00;;
45642;SDS011;31358;46.008;11.144;2022-08-19T10:38:11;6.65;;;2.60;;
45642;SDS011;31358;46.008;11.144;2022-08-19T10:40:37;6.88;;;2.40;;
45642;SDS011;31358;46.008;11.144;2022-08-19T10:43:03;4.68;;;2.30;;
45642;SDS011;31358;46.008;11.144;2022-08-19T10:45:29;3.78;;;2.13;;
45642;SDS011;31358;46.008;11.144;2022-08-19T10:47:54;3.50;;;1.58;;
45642;SDS011;31358;46.008;11.144;2022-08-19T10:50:20;4.55;;;1.98;;
45642;SDS011;31358;46.008;11.144;2022-08-19T10:53:06;4.10;;;1.85;;
45642;SDS011;31358;46.008;11.144;2022-08-19T10:55:36;3.88;;;2.33;;
45642;SDS011;31358;46.008;11.144;2022-08-19T11:00:52;4.50;;;1.85;;
45642;SDS011;31358;46.008;11.144;2022-08-19T11:03:19;6.93;;;2.72;;
45642;SDS011;31358;46.008;11.144;2022-08-19T11:05:45;7.85;;;3.05;;
45642;SDS011;31358;46.008;11.144;2022-08-19T11:08:11;7.35;;;2.03;;
45642;SDS011;31358;46.008;11.144;2022-08-19T11:10:37;5.78;;;2.75;;
45642;SDS011;31358;46.008;11.144;2022-08-19T11:13:06;5.47;;;2.30;;
45642;SDS011;31358;46.008;11.144;2022-08-19T11:15:31;4.53;;;1.80;;
45642;SDS011;31358;46.008;11.144;2022-08-19T11:17:58;9.23;;;2.20;;
45642;SDS011;31358;46.008;11.144;2022-08-19T11:20:24;5.13;;;2.15;;
45642;SDS011;31358;46.008;11.144;2022-08-19T11:22:51;4.93;;;2.28;;
45642;SDS011;31358;46.008;11.144;2022-08-19T11:25:18;5.90;;;2.13;;
45642;SDS011;31358;46.008;11.144;2022-08-19T11:27:44;6.00;;;2.25;;
45642;SDS011;31358;46.008;11.144;2022-08-19T11:30:11;4.10;;;1.77;;
45642;SDS011;31358;46.008;11.144;2022-08-19T11:32:38;8.02;;;1.80;;
45642;SDS011;31358;46.008;11.144;2022-08-19T11:35:07;5.45;;;2.00;;
45642;SDS011;31358;46.008;11.144;2022-08-19T11:37:33;5.25;;;1.90;;
45642;SDS011;31358;46.008;11.144;2022-08-19T11:40:02;5.60;;;2.42;;
45642;SDS011;31358;46.008;11.144;2022-08-19T11:42:29;3.53;;;1.70;;
45642;SDS011;31358;46.008;11.144;2022-08-19T11:47:39;3.22;;;1.73;;
45642;SDS011;31358;46.008;11.144;2022-08-19T11:50:05;4.95;;;1.88;;
45642;SDS011;31358;46.008;11.144;2022-08-19T11:52:31;5.38;;;1.98;;
45642;SDS011;31358;46.008;11.144;2022-08-19T11:54:56;5.93;;;2.30;;
45642;SDS011;31358;46.008;11.144;2022-08-19T11:57:22;3.75;;;1.58;;
45642;SDS011;31358;46.008;11.144;2022-08-19T11:59:50;3.88;;;2.15;;
45642;SDS011;31358;46.008;11.144;2022-08-19T12:02:18;4.18;;;1.88;;
45642;SDS011;31358;46.008;11.144;2022-08-19T12:04:44;4.10;;;2.38;;
45642;SDS011;31358;46.008;11.144;2022-08-19T12:07:10;4.20;;;1.83;;
45642;SDS011;31358;46.008;11.144;2022-08-19T12:09:35;4.28;;;2.03;;
45642;SDS011;31358;46.008;11.144;2022-08-19T12:12:01;6.32;;;1.67;;
45642;SDS011;31358;46.008;11.144;2022-08-19T12:14:27;4.80;;;2.05;;
45642;SDS011;31358;46.008;11.144;2022-08-19T12:16:55;3.80;;;2.03;;
45642;SDS011;31358;46.008;11.144;2022-08-19T12:19:21;4.60;;;1.88;;
45642;SDS011;31358;46.008;11.144;2022-08-19T12:21:47;6.10;;;2.10;;
45642;SDS011;31358;46.008;11.144;2022-08-19T12:24:13;4.93;;;2.25;;
45642;SDS011;31358;46.008;11.144;2022-08-19T12:26:39;5.22;;;1.80;;
45642;SDS011;31358;46.008;11.144;2022-08-19T12:29:05;3.92;;;1.70;;
45642;SDS011;31358;46.008;11.144;2022-08-19T12:31:31;3.47;;;1.75;;
45642;SDS011;31358;46.008;11.144;2022-08-19T12:33:56;3.63;;;1.75;;
45642;SDS011;31358;46.008;11.144;2022-08-19T12:36:23;5.88;;;1.77;;
45642;SDS011;31358;46.008;11.144;2022-08-19T12:38:49;5.35;;;2.00;;
45642;SDS011;31358;46.008;11.144;2022-08-19T12:41:16;4.15;;;1.98;;
45642;SDS011;31358;46.008;11.144;2022-08-19T12:43:43;4.55;;;1.65;;
45642;SDS011;31358;46.008;11.144;2022-08-19T12:46:10;6.40;;;1.70;;
45642;SDS011;31358;46.008;11.144;2022-08-19T12:48:36;4.15;;;1.50;;
45642;SDS011;31358;46.008;11.144;2022-08-19T12:51:08;5.88;;;2.10;;
45642;SDS011;31358;46.008;11.144;2022-08-19T12:53:35;5.13;;;1.98;;
45642;SDS011;31358;46.008;11.144;2022-08-19T12:56:01;4.03;;;1.50;;
45642;SDS011;31358;46.008;11.144;2022-08-19T12:58:27;3.58;;;1.58;;
45642;SDS011;31358;46.008;11.144;2022-08-19T13:00:53;3.40;;;1.80;;
45642;SDS011;31358;46.008;11.144;2022-08-19T13:03:19;3.85;;;1.52;;
45642;SDS011;31358;46.008;11.144;2022-08-19T13:05:47;3.92;;;1.60;;
45642;SDS011;31358;46.008;11.144;2022-08-19T13:08:15;3.63;;;1.75;;
45642;SDS011;31358;46.008;11.144;2022-08-19T13:10:41;4.50;;;2.35;;
45642;SDS011;31358;46.008;11.144;2022-08-19T13:13:08;4.55;;;2.08;;
45642;SDS011;31358;46.008;11.144;2022-08-19T13:15:36;4.57;;;1.88;;
45642;SDS011;31358;46.008;11.144;2022-08-19T13:18:05;4.18;;;1.77;;
45642;SDS011;31358;46.008;11.144;2022-08-19T13:20:32;6.85;;;2.08;;
45642;SDS011;31358;46.008;11.144;2022-08-19T13:22:57;5.28;;;2.33;;
45642;SDS011;31358;46.008;11.144;2022-08-19T13:25:24;3.90;;;1.63;;
45642;SDS011;31358;46.008;11.144;2022-08-19T13:27:50;4.90;;;1.80;;
45642;SDS011;31358;46.008;11.144;2022-08-19T13:30:17;4.57;;;1.65;;
45642;SDS011;31358;46.008;11.144;2022-08-19T13:33:03;3.63;;;2.00;;
45642;SDS011;31358;46.008;11.144;2022-08-19T13:38:09;5.15;;;1.77;;
45642;SDS011;31358;46.008;11.144;2022-08-19T13:40:35;4.47;;;1.75;;
45642;SDS011;31358;46.008;11.144;2022-08-19T13:43:02;5.20;;;1.95;;
45642;SDS011;31358;46.008;11.144;2022-08-19T13:45:29;3.60;;;1.70;;
45642;SDS011;31358;46.008;11.144;2022-08-19T13:48:00;6.60;;;1.70;;
45642;SDS011;31358;46.008;11.144;2022-08-19T13:50:31;3.83;;;1.30;;
45642;SDS011;31358;46.008;11.144;2022-08-19T13:52:57;9.93;;;1.92;;
45642;SDS011;31358;46.008;11.144;2022-08-19T13:55:23;4.93;;;1.58;;
45642;SDS011;31358;46.008;11.144;2022-08-19T13:57:50;3.83;;;1.20;;
45642;SDS011;31358;46.008;11.144;2022-08-19T14:00:19;4.25;;;1.15;;
45642;SDS011;31358;46.008;11.144;2022-08-19T14:02:46;2.85;;;1.45;;
45642;SDS011;31358;46.008;11.144;2022-08-19T14:05:16;4.05;;;1.45;;
45642;SDS011;31358;46.008;11.144;2022-08-19T14:07:42;6.55;;;1.65;;
45642;SDS011;31358;46.008;11.144;2022-08-19T14:10:09;8.95;;;2.00;;
45642;SDS011;31358;46.008;11.144;2022-08-19T14:12:37;7.72;;;1.98;;
45642;SDS011;31358;46.008;11.144;2022-08-19T14:15:03;7.43;;;1.90;;
45642;SDS011;31358;46.008;11.144;2022-08-19T14:17:31;8.50;;;2.78;;
45642;SDS011;31358;46.008;11.144;2022-08-19T14:20:03;10.18;;;2.00;;
45642;SDS011;31358;46.008;11.144;2022-08-19T14:22:34;9.73;;;2.30;;
45642;SDS011;31358;46.008;11.144;2022-08-19T14:25:01;7.03;;;1.90;;
45642;SDS011;31358;46.008;11.144;2022-08-19T14:27:27;8.88;;;2.30;;
45642;SDS011;31358;46.008;11.144;2022-08-19T14:29:53;5.07;;;2.45;;
45642;SDS011;31358;46.008;11.144;2022-08-19T14:32:20;8.05;;;1.83;;
45642;SDS011;31358;46.008;11.144;2022-08-19T14:34:46;12.13;;;1.98;;
45642;SDS011;31358;46.008;11.144;2022-08-19T14:37:12;7.15;;;1.90;;
45642;SDS011;31358;46.008;11.144;2022-08-19T14:39:39;6.10;;;1.67;;
45642;SDS011;31358;46.008;11.144;2022-08-19T14:42:10;7.68;;;1.48;;
45642;SDS011;31358;46.008;11.144;2022-08-19T14:44:36;6.60;;;1.63;;
45642;SDS011;31358;46.008;11.144;2022-08-19T14:47:03;4.90;;;1.23;;
45642;SDS011;31358;46.008;11.144;2022-08-19T14:49:29;3.88;;;1.80;;
45642;SDS011;31358;46.008;11.144;2022-08-19T14:51:54;9.55;;;1.60;;
45642;SDS011;31358;46.008;11.144;2022-08-19T14:54:21;5.75;;;1.50;;
45642;SDS011;31358;46.008;11.144;2022-08-19T14:56:47;6.75;;;1.77;;
45642;SDS011;31358;46.008;11.144;2022-08-19T14:59:13;5.70;;;1.80;;
45642;SDS011;31358;46.008;11.144;2022-08-19T15:01:38;4.93;;;1.70;;